Time;durP1;ratioP1;P1;durP2;ratioP2;P2;SDS_P1;SDS_P2;PMS_P1;PMS_P2;Temp;Humidity;BMP_temperature;BMP_pressure;BME280_temperature;BME280_humidity;BME280_pressure;Samples;Min_cycle;Max_cycle;Signal;HPM_P1;HPM_P2
2022/04/19 00:00:56;;;;;;;9.45;5.93;;;;;;;;;;6266508;28;20131;-73
2022/04/19 00:03:59;;;;;;;11.35;5.18;;;;;;;;;;6255580;28;20041;-73
2022/04/19 00:07:01;;;;;;;7.68;5.55;;;;;;;;;;6253325;28;20107;-73
2022/04/19 00:10:03;;;;;;;7.88;5.13;;;;;;;;;;6249968;28;20060;-73
2022/04/19 00:13:06;;;;;;;8.35;5.00;;;;;;;;;;6253965;28;20137;-72
2022/04/19 00:16:08;;;;;;;6.43;4.88;;;;;;;;;;6251297;28;20046;-72
2022/04/19 00:19:11;;;;;;;6.40;4.93;;;;;;;;;;6254673;28;20138;-73
2022/04/19 00:22:13;;;;;;;9.68;5.03;;;;;;;;;;6254292;28;20049;-72
2022/04/19 00:25:15;;;;;;;8.07;5.38;;;;;;;;;;6254666;28;20051;-73
2022/04/19 00:28:16;;;;;;;10.07;5.00;;;;;;;;;;6254329;28;20053;-73
2022/04/19 00:31:18;;;;;;;9.60;5.75;;;;;;;;;;6263222;28;20049;-73
2022/04/19 00:34:21;;;;;;;7.35;5.03;;;;;;;;;;6258332;28;20127;-73
2022/04/19 00:37:23;;;;;;;8.15;4.88;;;;;;;;;;6255178;28;20355;-73
2022/04/19 00:40:25;;;;;;;7.60;4.82;;;;;;;;;;6255017;28;20049;-73
2022/04/19 00:43:27;;;;;;;6.25;4.70;;;;;;;;;;6252688;28;20087;-73
2022/04/19 00:46:28;;;;;;;7.00;4.82;;;;;;;;;;6256751;28;20064;-73
2022/04/19 00:49:33;;;;;;;7.38;4.40;;;;;;;;;;6257425;28;20166;-73
2022/04/19 00:52:38;;;;;;;6.88;4.60;;;;;;;;;;6255878;28;20481;-73
2022/04/19 00:55:39;;;;;;;7.10;4.68;;;;;;;;;;6259272;28;20044;-73
2022/04/19 00:58:41;;;;;;;6.93;4.13;;;;;;;;;;6263574;28;20179;-73
2022/04/19 01:01:43;;;;;;;5.75;4.40;;;;;;;;;;6258304;28;20123;-72
2022/04/19 01:04:46;;;;;;;6.18;4.25;;;;;;;;;;6263700;28;20049;-72
2022/04/19 01:07:47;;;;;;;7.77;3.57;;;;;;;;;;6259009;28;20183;-73
2022/04/19 01:10:49;;;;;;;6.88;4.22;;;;;;;;;;6267853;28;20046;-72
2022/04/19 01:13:50;;;;;;;6.50;4.22;;;;;;;;;;6264537;28;20521;-73
2022/04/19 01:16:52;;;;;;;5.45;4.20;;;;;;;;;;6265376;28;20222;-73
2022/04/19 01:19:55;;;;;;;7.13;4.63;;;;;;;;;;6255109;28;20049;-73
2022/04/19 01:22:58;;;;;;;6.00;4.22;;;;;;;;;;6259306;28;20048;-73
2022/04/19 01:26:00;;;;;;;9.38;4.70;;;;;;;;;;6260950;28;20075;-73
2022/04/19 01:29:02;;;;;;;5.10;3.90;;;;;;;;;;6253495;28;20122;-73
2022/04/19 01:32:05;;;;;;;4.68;3.67;;;;;;;;;;6259906;28;20187;-73
2022/04/19 01:35:11;;;;;;;5.20;4.15;;;;;;;;;;6258488;28;20069;-73
2022/04/19 01:38:14;;;;;;;5.45;4.28;;;;;;;;;;6258473;28;20478;-73
2022/04/19 01:41:16;;;;;;;6.18;3.95;;;;;;;;;;6260543;28;20494;-73
2022/04/19 01:44:17;;;;;;;8.98;5.03;;;;;;;;;;6260709;28;20444;-73
2022/04/19 01:47:19;;;;;;;8.27;4.43;;;;;;;;;;6260146;28;20049;-73
2022/04/19 01:50:22;;;;;;;6.85;4.20;;;;;;;;;;6260272;28;20115;-73
2022/04/19 01:53:27;;;;;;;11.60;5.80;;;;;;;;;;6258570;28;20540;-73
2022/04/19 01:56:28;;;;;;;6.28;4.05;;;;;;;;;;6266352;28;20057;-73
2022/04/19 01:59:30;;;;;;;4.85;4.13;;;;;;;;;;6261647;28;20148;-73
2022/04/19 02:02:31;;;;;;;6.47;3.90;;;;;;;;;;6265640;28;20171;-72
2022/04/19 02:05:33;;;;;;;8.27;3.80;;;;;;;;;;6265592;28;20080;-72
2022/04/19 02:08:36;;;;;;;7.55;4.22;;;;;;;;;;6256511;28;20522;-73
2022/04/19 02:11:38;;;;;;;5.75;3.83;;;;;;;;;;6257137;28;20168;-73
2022/04/19 02:14:41;;;;;;;6.00;4.15;;;;;;;;;;6257844;28;20053;-72
2022/04/19 02:17:45;;;;;;;6.57;3.72;;;;;;;;;;6259243;28;20048;-72
2022/04/19 02:20:47;;;;;;;7.30;3.80;;;;;;;;;;6262394;28;20053;-73
2022/04/19 02:23:50;;;;;;;6.05;4.38;;;;;;;;;;6259822;28;20049;-73
2022/04/19 02:26:53;;;;;;;8.05;4.15;;;;;;;;;;6261001;28;20045;-72
2022/04/19 02:29:55;;;;;;;5.93;4.03;;;;;;;;;;6261990;28;20507;-72
2022/04/19 02:32:56;;;;;;;7.20;4.43;;;;;;;;;;6264264;28;20041;-73
2022/04/19 02:35:58;;;;;;;9.95;4.45;;;;;;;;;;6260197;28;20045;-73
2022/04/19 02:39:01;;;;;;;7.72;3.58;;;;;;;;;;6256377;28;20045;-72
2022/04/19 02:42:03;;;;;;;6.73;4.50;;;;;;;;;;6258185;28;20049;-72
2022/04/19 02:45:05;;;;;;;5.38;3.75;;;;;;;;;;6257018;28;20531;-73
2022/04/19 02:48:08;;;;;;;5.70;4.00;;;;;;;;;;6263000;28;20509;-73
2022/04/19 02:51:10;;;;;;;6.17;3.77;;;;;;;;;;6258624;28;20061;-73
2022/04/19 02:54:13;;;;;;;6.40;4.10;;;;;;;;;;6263142;28;20080;-73
2022/04/19 02:57:15;;;;;;;6.22;4.10;;;;;;;;;;6263059;28;20138;-72
2022/04/19 03:00:17;;;;;;;5.85;4.13;;;;;;;;;;6260160;28;20067;-72
2022/04/19 03:03:18;;;;;;;6.30;4.32;;;;;;;;;;6261286;28;20132;-72
2022/04/19 03:06:20;;;;;;;6.50;4.07;;;;;;;;;;6251991;28;20072;-73
2022/04/19 03:09:23;;;;;;;6.60;4.30;;;;;;;;;;6251728;28;20216;-73
2022/04/19 03:12:25;;;;;;;6.78;4.38;;;;;;;;;;6251946;28;20437;-72
2022/04/19 03:15:27;;;;;;;7.22;4.10;;;;;;;;;;6253289;28;20570;-73
2022/04/19 03:18:30;;;;;;;5.82;4.18;;;;;;;;;;6253973;28;20049;-73
2022/04/19 03:21:31;;;;;;;5.32;3.80;;;;;;;;;;6257017;28;20057;-73
2022/04/19 03:27:53;;;;;;;6.97;4.68;;;;;;;;;;6258212;28;20041;-73
2022/04/19 03:30:55;;;;;;;8.48;4.40;;;;;;;;;;6259623;28;20577;-73
2022/04/19 03:33:56;;;;;;;6.63;4.28;;;;;;;;;;6259150;28;20081;-73
2022/04/19 03:36:58;;;;;;;9.20;4.25;;;;;;;;;;6261209;28;20101;-73
2022/04/19 03:40:01;;;;;;;5.93;4.22;;;;;;;;;;6260298;28;20045;-73
2022/04/19 03:43:07;;;;;;;5.57;3.97;;;;;;;;;;6263329;28;20136;-72
2022/04/19 03:46:09;;;;;;;6.45;4.40;;;;;;;;;;6259856;28;20049;-73
2022/04/19 03:49:10;;;;;;;7.38;4.25;;;;;;;;;;6262345;28;20052;-73
2022/04/19 03:52:12;;;;;;;10.63;4.75;;;;;;;;;;6263365;28;20138;-73
2022/04/19 03:55:15;;;;;;;6.15;4.05;;;;;;;;;;6260437;28;20505;-73
2022/04/19 03:58:17;;;;;;;10.00;4.55;;;;;;;;;;6258535;28;20449;-72
2022/04/19 04:01:18;;;;;;;7.97;4.75;;;;;;;;;;6261478;28;20062;-73
2022/04/19 04:04:21;;;;;;;7.50;4.53;;;;;;;;;;6256617;28;20627;-73
2022/04/19 04:07:22;;;;;;;7.85;4.20;;;;;;;;;;6252177;28;20056;-74
2022/04/19 04:10:25;;;;;;;10.30;4.55;;;;;;;;;;6255030;28;20148;-73
2022/04/19 04:13:27;;;;;;;8.02;4.40;;;;;;;;;;6251310;28;20045;-72
2022/04/19 04:16:28;;;;;;;7.78;4.88;;;;;;;;;;6256991;28;20146;-73
2022/04/19 04:19:30;;;;;;;9.18;4.80;;;;;;;;;;6257203;28;20132;-73
2022/04/19 04:22:31;;;;;;;7.40;4.30;;;;;;;;;;6253221;28;20126;-73
2022/04/19 04:25:34;;;;;;;7.93;4.60;;;;;;;;;;6253216;28;20134;-73
2022/04/19 04:28:36;;;;;;;9.02;4.65;;;;;;;;;;6255662;28;20065;-73
2022/04/19 04:31:38;;;;;;;11.68;4.65;;;;;;;;;;6257538;28;20088;-74
2022/04/19 04:34:39;;;;;;;12.30;5.10;;;;;;;;;;6256944;28;20057;-73
2022/04/19 04:37:41;;;;;;;9.32;4.70;;;;;;;;;;6259526;28;20183;-74
2022/04/19 04:40:44;;;;;;;10.32;5.22;;;;;;;;;;6262214;28;20139;-74
2022/04/19 04:43:45;;;;;;;11.88;4.38;;;;;;;;;;6265149;28;20087;-74
2022/04/19 04:50:08;;;;;;;7.95;5.32;;;;;;;;;;6267170;28;20037;-73
2022/04/19 04:53:10;;;;;;;8.65;4.40;;;;;;;;;;6268678;28;20046;-74
2022/04/19 04:56:13;;;;;;;8.38;4.90;;;;;;;;;;6269424;28;20370;-73
2022/04/19 04:59:14;;;;;;;7.35;4.75;;;;;;;;;;6264238;28;20124;-73
2022/04/19 05:02:16;;;;;;;12.13;4.90;;;;;;;;;;6273507;28;20178;-73
2022/04/19 05:05:18;;;;;;;7.88;4.40;;;;;;;;;;6262122;28;20119;-72
2022/04/19 05:08:19;;;;;;;10.20;5.00;;;;;;;;;;6259846;28;20052;-73
2022/04/19 05:11:22;;;;;;;10.30;4.95;;;;;;;;;;6252916;28;20161;-71
2022/04/19 05:14:24;;;;;;;10.00;5.07;;;;;;;;;;6252870;28;20187;-71
2022/04/19 05:17:25;;;;;;;9.63;5.55;;;;;;;;;;6257750;28;20081;-71
2022/04/19 05:20:27;;;;;;;12.63;5.72;;;;;;;;;;6258231;28;20122;-71
2022/04/19 05:23:29;;;;;;;8.30;5.20;;;;;;;;;;6261673;28;20111;-70
2022/04/19 05:26:32;;;;;;;9.90;4.80;;;;;;;;;;6259226;28;20823;-71
2022/04/19 05:29:33;;;;;;;13.60;5.80;;;;;;;;;;6259906;28;20233;-70
2022/04/19 05:32:35;;;;;;;10.18;5.88;;;;;;;;;;6260452;28;20416;-71
2022/04/19 05:35:38;;;;;;;12.70;5.28;;;;;;;;;;6260159;28;20116;-72
2022/04/19 05:38:39;;;;;;;9.25;5.15;;;;;;;;;;6266954;28;20056;-72
2022/04/19 05:41:43;;;;;;;16.25;5.22;;;;;;;;;;6260551;28;20060;-72
2022/04/19 05:44:45;;;;;;;15.07;5.47;;;;;;;;;;6259255;28;20061;-72
2022/04/19 05:47:46;;;;;;;32.63;8.60;;;;;;;;;;6258885;28;20064;-72
2022/04/19 05:50:48;;;;;;;33.22;8.13;;;;;;;;;;6260181;28;20536;-72
2022/04/19 05:53:49;;;;;;;16.92;7.53;;;;;;;;;;6264337;28;20566;-72
2022/04/19 05:56:52;;;;;;;11.75;6.15;;;;;;;;;;6263578;28;20449;-72
2022/04/19 05:59:54;;;;;;;14.13;7.00;;;;;;;;;;6266182;28;20099;-72
2022/04/19 06:06:14;;;;;;;9.43;5.30;;;;;;;;;;6260677;28;20041;-72
2022/04/19 06:09:16;;;;;;;8.85;5.57;;;;;;;;;;6259684;28;20180;-72
2022/04/19 06:12:19;;;;;;;11.00;6.32;;;;;;;;;;6261035;28;20053;-72
2022/04/19 06:15:21;;;;;;;13.00;5.88;;;;;;;;;;6265281;28;20116;-71
2022/04/19 06:18:22;;;;;;;11.65;5.90;;;;;;;;;;6263902;28;20509;-72
2022/04/19 06:21:24;;;;;;;12.57;6.20;;;;;;;;;;6259543;28;20488;-71
2022/04/19 06:24:26;;;;;;;7.82;5.20;;;;;;;;;;6258298;28;20103;-71
2022/04/19 06:27:29;;;;;;;9.70;5.90;;;;;;;;;;6262067;28;20044;-72
2022/04/19 06:30:31;;;;;;;12.93;6.53;;;;;;;;;;6257294;28;20059;-71
2022/04/19 06:33:33;;;;;;;13.90;6.50;;;;;;;;;;6258447;28;20080;-71
2022/04/19 06:36:35;;;;;;;11.25;5.65;;;;;;;;;;6257274;28;20049;-71
2022/04/19 06:39:36;;;;;;;21.55;6.20;;;;;;;;;;6259438;28;20546;-71
2022/04/19 06:42:39;;;;;;;9.00;5.85;;;;;;;;;;6258131;28;20430;-71
2022/04/19 06:45:43;;;;;;;11.07;5.50;;;;;;;;;;6260034;28;20438;-71
2022/04/19 06:48:45;;;;;;;12.45;5.10;;;;;;;;;;6261310;28;20227;-71
2022/04/19 06:51:48;;;;;;;7.28;5.03;;;;;;;;;;6259422;28;20056;-71
2022/04/19 06:54:50;;;;;;;7.45;4.90;;;;;;;;;;6260611;28;20078;-71
2022/04/19 06:57:53;;;;;;;6.88;4.55;;;;;;;;;;6259511;28;20053;-70
2022/04/19 07:00:56;;;;;;;8.40;4.70;;;;;;;;;;6262058;28;20049;-72
2022/04/19 07:03:57;;;;;;;10.75;5.15;;;;;;;;;;6256948;28;20047;-71
2022/04/19 07:06:59;;;;;;;7.38;4.90;;;;;;;;;;6250786;28;20127;-71
2022/04/19 07:10:01;;;;;;;8.63;4.45;;;;;;;;;;6262464;28;20049;-71
2022/04/19 07:13:04;;;;;;;8.60;4.75;;;;;;;;;;6258616;28;20052;-70
2022/04/19 07:16:06;;;;;;;7.43;3.63;;;;;;;;;;6250742;28;20061;-70
2022/04/19 07:19:07;;;;;;;9.68;3.72;;;;;;;;;;6256969;28;20393;-70
2022/04/19 07:28:48;;;;;;;8.88;3.40;;;;;;;;;;6259549;28;20114;-70
2022/04/19 07:31:51;;;;;;;5.68;3.60;;;;;;;;;;6263412;28;20057;-70
2022/04/19 07:34:53;;;;;;;7.30;3.90;;;;;;;;;;6260353;28;20075;-70
2022/04/19 07:37:54;;;;;;;5.38;3.90;;;;;;;;;;6252616;28;20045;-71
2022/04/19 07:40:56;;;;;;;6.97;3.90;;;;;;;;;;6256593;28;20049;-71
2022/04/19 07:44:01;;;;;;;7.88;4.00;;;;;;;;;;6255277;28;20492;-72
2022/04/19 07:47:02;;;;;;;5.63;4.13;;;;;;;;;;6260518;28;20175;-71
2022/04/19 07:50:04;;;;;;;9.20;4.90;;;;;;;;;;6254390;28;20045;-71
2022/04/19 07:53:07;;;;;;;6.97;4.88;;;;;;;;;;6262355;28;20037;-71
2022/04/19 07:56:08;;;;;;;7.60;5.40;;;;;;;;;;6259730;28;20127;-71
2022/04/19 07:59:11;;;;;;;8.55;6.10;;;;;;;;;;6256351;28;20077;-71
2022/04/19 08:02:13;;;;;;;8.88;5.68;;;;;;;;;;6253664;28;20881;-71
2022/04/19 08:05:15;;;;;;;9.32;6.13;;;;;;;;;;6252608;28;20104;-71
2022/04/19 08:08:17;;;;;;;9.60;5.50;;;;;;;;;;6256241;28;20049;-71
2022/04/19 08:11:19;;;;;;;11.98;6.05;;;;;;;;;;6257063;28;20547;-71
2022/04/19 08:14:22;;;;;;;9.15;6.00;;;;;;;;;;6255696;28;20466;-71
2022/04/19 08:17:24;;;;;;;8.05;5.60;;;;;;;;;;6256638;28;20057;-70
2022/04/19 08:20:26;;;;;;;8.48;6.03;;;;;;;;;;6257647;28;20126;-71
2022/04/19 08:23:27;;;;;;;10.68;5.70;;;;;;;;;;6259043;28;20048;-71
2022/04/19 08:26:29;;;;;;;14.07;5.90;;;;;;;;;;6256561;28;20045;-71
2022/04/19 08:29:32;;;;;;;10.70;5.47;;;;;;;;;;6256062;28;20052;-71
2022/04/19 08:32:34;;;;;;;9.30;5.75;;;;;;;;;;6254324;28;20080;-70
2022/04/19 08:35:35;;;;;;;9.63;5.63;;;;;;;;;;6261210;28;20176;-70
2022/04/19 08:38:37;;;;;;;9.50;5.28;;;;;;;;;;6261313;28;20216;-70
2022/04/19 08:41:40;;;;;;;11.02;5.65;;;;;;;;;;6261657;28;20060;-70
2022/04/19 08:44:44;;;;;;;7.28;5.30;;;;;;;;;;6259634;28;20142;-70
2022/04/19 08:47:47;;;;;;;10.35;5.30;;;;;;;;;;6264704;28;20056;-70
2022/04/19 08:50:51;;;;;;;8.45;5.07;;;;;;;;;;6264386;28;20037;-70
2022/04/19 08:57:30;;;;;;;7.43;5.03;;;;;;;;;;6263150;28;20144;-71
2022/04/19 09:00:33;;;;;;;11.48;5.22;;;;;;;;;;6257832;28;20080;-70
2022/04/19 09:03:36;;;;;;;7.75;4.70;;;;;;;;;;6256132;28;20068;-71
2022/04/19 09:06:51;;;;;;;8.00;4.70;;;;;;;;;;6254295;28;20072;-71
2022/04/19 09:10:00;;;;;;;6.47;4.90;;;;;;;;;;6252003;28;20045;-71
2022/04/19 09:13:04;;;;;;;5.53;4.53;;;;;;;;;;6251347;28;20041;-71
2022/04/19 09:16:08;;;;;;;5.93;4.22;;;;;;;;;;6252610;28;20041;-71
2022/04/19 09:19:10;;;;;;;7.65;4.88;;;;;;;;;;6254594;28;20132;-71
2022/04/19 09:22:26;;;;;;;6.53;4.57;;;;;;;;;;6255043;28;20052;-73
2022/04/19 09:25:27;;;;;;;6.47;4.30;;;;;;;;;;6258454;28;20142;-73
2022/04/19 09:28:29;;;;;;;6.65;4.53;;;;;;;;;;6263478;28;20109;-71
2022/04/19 09:31:32;;;;;;;8.07;4.70;;;;;;;;;;6262446;28;20053;-72
2022/04/19 09:34:36;;;;;;;6.70;4.32;;;;;;;;;;6260586;28;21009;-75
2022/04/19 09:37:38;;;;;;;9.52;8.60;;;;;;;;;;6261306;28;20053;-76
2022/04/19 09:40:41;;;;;;;160.00;110.90;;;;;;;;;;6261007;28;20338;-75
2022/04/19 09:43:43;;;;;;;115.53;85.32;;;;;;;;;;6262988;28;20124;-75
2022/04/19 09:50:13;;;;;;;33.38;25.05;;;;;;;;;;6305507;27;20149;-73
2022/04/19 09:53:18;;;;;;;15.60;12.75;;;;;;;;;;6263822;28;20069;-70
2022/04/19 09:56:20;;;;;;;8.93;6.35;;;;;;;;;;6265908;28;20508;-70
2022/04/19 09:59:24;;;;;;;11.63;8.43;;;;;;;;;;6256833;28;20042;-71
2022/04/19 10:09:06;;;;;;;7.97;6.45;;;;;;;;;;6252073;28;20053;-69
2022/04/19 10:12:10;;;;;;;9.27;5.82;;;;;;;;;;6254453;28;20517;-70
2022/04/19 10:15:12;;;;;;;8.93;4.25;;;;;;;;;;6268206;28;20052;-75
2022/04/19 10:18:14;;;;;;;7.07;4.28;;;;;;;;;;6280855;28;20045;-74
2022/04/19 10:21:19;;;;;;;4.78;4.28;;;;;;;;;;6280995;28;20135;-74
2022/04/19 10:24:22;;;;;;;5.25;4.07;;;;;;;;;;6280069;28;20060;-74
2022/04/19 10:27:30;;;;;;;5.18;4.38;;;;;;;;;;6277628;28;20060;-74
2022/04/19 10:30:33;;;;;;;5.15;4.32;;;;;;;;;;6279421;28;20519;-74
2022/04/19 10:33:43;;;;;;;;;;;;;;;;;;6283922;28;20041;-74
2022/04/19 10:36:47;;;;;;;5.95;4.60;;;;;;;;;;6282044;28;19928;-74
2022/04/19 10:39:49;;;;;;;5.93;5.03;;;;;;;;;;6278196;28;20075;-74
2022/04/19 10:43:14;;;;;;;5.35;4.60;;;;;;;;;;6272591;28;20236;-74
2022/04/19 10:46:20;;;;;;;6.65;5.65;;;;;;;;;;6273578;28;20056;-72
2022/04/19 10:49:25;;;;;;;7.50;5.85;;;;;;;;;;6280394;28;20055;-73
2022/04/19 10:52:50;;;;;;;7.95;5.03;;;;;;;;;;6279824;28;20067;-75
2022/04/19 10:55:58;;;;;;;15.63;13.68;;;;;;;;;;6282283;28;20125;-73
2022/04/19 10:59:23;;;;;;;9.68;8.40;;;;;;;;;;6272608;28;20187;-73
2022/04/19 11:02:35;;;;;;;7.15;5.43;;;;;;;;;;6263347;28;20573;-76
2022/04/19 11:05:41;;;;;;;6.93;5.00;;;;;;;;;;6262329;28;20496;-75
2022/04/19 11:08:44;;;;;;;7.32;5.50;;;;;;;;;;6259494;28;20041;-77
2022/04/19 11:11:51;;;;;;;6.55;4.40;;;;;;;;;;6262272;28;20481;-78
2022/04/19 11:15:15;;;;;;;6.53;4.68;;;;;;;;;;6261437;28;20053;-73
2022/04/19 11:18:23;;;;;;;6.95;5.50;;;;;;;;;;6258785;28;20049;-72
2022/04/19 11:21:54;;;;;;;6.78;5.47;;;;;;;;;;6253845;28;20216;-71
2022/04/19 11:25:07;;;;;;;8.77;4.90;;;;;;;;;;6259079;28;20194;-72
2022/04/19 11:28:26;;;;;;;6.53;4.47;;;;;;;;;;6257344;28;20547;-71
2022/04/19 11:31:28;;;;;;;6.13;4.97;;;;;;;;;;6261592;28;20057;-70
2022/04/19 11:34:30;;;;;;;7.47;5.82;;;;;;;;;;6259297;28;20191;-70
2022/04/19 11:37:32;;;;;;;5.80;5.27;;;;;;;;;;6261222;28;20528;-72
2022/04/19 11:47:43;;;;;;;8.32;6.18;;;;;;;;;;6205535;28;20129;-69
2022/04/19 11:50:45;;;;;;;9.23;6.27;;;;;;;;;;6205270;28;20589;-69
2022/04/19 11:53:49;;;;;;;7.15;6.45;;;;;;;;;;6209102;28;20434;-73
2022/04/19 11:56:52;;;;;;;8.85;5.80;;;;;;;;;;6201051;28;20065;-72
2022/04/19 11:59:54;;;;;;;7.97;6.18;;;;;;;;;;6202273;28;20046;-71
2022/04/19 12:02:57;;;;;;;10.25;6.85;;;;;;;;;;6197978;28;20046;-70
2022/04/19 12:06:07;;;;;;;8.15;6.20;;;;;;;;;;6204730;28;20103;-71
2022/04/19 12:09:13;;;;;;;7.82;6.60;;;;;;;;;;6202834;28;20054;-71
2022/04/19 12:12:16;;;;;;;7.32;6.63;;;;;;;;;;6204614;28;20046;-71
2022/04/19 12:15:39;;;;;;;9.60;6.93;;;;;;;;;;6205130;28;20148;-70
2022/04/19 12:18:40;;;;;;;7.28;6.53;;;;;;;;;;6184951;28;20065;-69
2022/04/19 12:21:43;;;;;;;8.90;6.30;;;;;;;;;;6181400;28;20054;-70
2022/04/19 12:24:45;;;;;;;7.38;6.50;;;;;;;;;;6222637;28;20499;-70
2022/04/19 12:41:38;;;;;;;8.65;7.25;;;;;;;;;;6236420;28;20045;-75
2022/04/19 12:48:25;;;;;;;10.25;7.53;;;;;;;;;;6234681;28;20140;-74
2022/04/19 13:20:51;;;;;;;11.57;7.13;;;;;;;;;;6234632;28;20129;-72
2022/04/19 13:24:30;;;;;;;13.70;6.85;;;;;;;;;;6234010;28;20093;-74
2022/04/19 13:38:26;;;;;;;132.43;86.13;;;;;;;;;;6237643;28;20053;-72
2022/04/19 13:57:34;;;;;;;19.35;13.93;;;;;;;;;;6231917;28;20438;-71
2022/04/19 14:00:36;;;;;;;13.18;7.50;;;;;;;;;;6229890;28;20057;-70
2022/04/19 14:10:36;;;;;;;12.20;6.72;;;;;;;;;;6227856;28;20054;-71
2022/04/19 14:21:12;;;;;;;18.88;7.20;;;;;;;;;;6227580;28;20053;-71
2022/04/19 14:24:51;;;;;;;11.80;7.15;;;;;;;;;;6231748;28;20127;-71
2022/04/19 14:35:10;;;;;;;14.35;6.75;;;;;;;;;;6236029;28;20046;-71
2022/04/19 14:45:12;;;;;;;12.45;5.85;;;;;;;;;;6238998;28;20373;-71
2022/04/19 15:02:04;;;;;;;4.50;3.20;;;;;;;;;;6187329;28;20042;-69
2022/04/19 15:05:24;;;;;;;6.13;3.90;;;;;;;;;;6181942;28;20062;-70
2022/04/19 15:19:02;;;;;;;8.32;3.47;;;;;;;;;;6179325;28;20495;-72
2022/04/19 15:22:04;;;;;;;332.95;234.43;;;;;;;;;;6178731;28;20395;-70
2022/04/19 15:25:07;;;;;;;21.33;15.43;;;;;;;;;;6181547;28;20050;-71
2022/04/19 15:34:48;;;;;;;16.02;6.85;;;;;;;;;;6235809;28;20049;-69
2022/04/19 15:41:09;;;;;;;7.68;3.20;;;;;;;;;;6235764;28;20580;-68
2022/04/19 15:50:52;;;;;;;8.98;2.65;;;;;;;;;;6236957;28;20073;-69
2022/04/19 16:01:00;;;;;;;6.28;2.47;;;;;;;;;;6234207;28;20448;-68
2022/04/19 16:04:02;;;;;;;7.28;2.72;;;;;;;;;;6233981;28;20094;-69
2022/04/19 16:07:05;;;;;;;7.78;2.30;;;;;;;;;;6234006;28;20053;-69
2022/04/19 16:10:07;;;;;;;5.00;2.38;;;;;;;;;;6230792;28;20045;-69
2022/04/19 16:13:11;;;;;;;5.97;2.50;;;;;;;;;;6234062;28;20120;-70
2022/04/19 16:26:12;;;;;;;18.80;2.70;;;;;;;;;;6228526;28;20497;-70
2022/04/19 16:29:14;;;;;;;8.68;2.83;;;;;;;;;;6230241;28;20050;-69
2022/04/19 16:32:16;;;;;;;8.63;2.83;;;;;;;;;;6229446;28;20497;-69
2022/04/19 16:35:18;;;;;;;12.43;2.65;;;;;;;;;;6229878;28;20126;-70
2022/04/19 16:38:21;;;;;;;7.32;2.20;;;;;;;;;;6224708;28;20049;-70
2022/04/19 16:41:23;;;;;;;7.63;2.55;;;;;;;;;;6242063;28;20199;-70
2022/04/19 16:44:24;;;;;;;7.95;2.83;;;;;;;;;;6235972;28;20050;-69
2022/04/19 16:47:26;;;;;;;7.70;2.80;;;;;;;;;;6235299;28;20061;-72
2022/04/19 16:50:28;;;;;;;4.88;2.40;;;;;;;;;;6232527;28;20054;-68
2022/04/19 16:53:35;;;;;;;5.93;2.13;;;;;;;;;;6235097;28;20053;-70
2022/04/19 16:56:37;;;;;;;5.47;2.60;;;;;;;;;;6232018;28;20053;-69
2022/04/19 16:59:39;;;;;;;8.43;2.50;;;;;;;;;;6228594;28;20620;-69
2022/04/19 17:02:41;;;;;;;14.43;2.53;;;;;;;;;;6233990;28;20053;-69
2022/04/19 17:05:43;;;;;;;3.80;2.15;;;;;;;;;;6231140;28;20151;-68
2022/04/19 17:08:46;;;;;;;8.00;2.67;;;;;;;;;;6232294;28;20065;-69
2022/04/19 17:11:47;;;;;;;5.05;2.10;;;;;;;;;;6233639;28;20050;-72
2022/04/19 17:14:49;;;;;;;7.28;2.30;;;;;;;;;;6234835;28;20073;-70
2022/04/19 17:17:50;;;;;;;6.72;2.50;;;;;;;;;;6233874;28;20119;-68
2022/04/19 17:20:52;;;;;;;7.68;2.03;;;;;;;;;;6233058;28;20169;-70
2022/04/19 17:23:56;;;;;;;6.63;2.25;;;;;;;;;;6231308;28;22115;-70
2022/04/19 17:26:57;;;;;;;;;;;;;;;;;;6237046;28;20050;-70
2022/04/19 17:29:59;;;;;;;5.90;2.30;;;;;;;;;;6230136;28;19927;-70
2022/04/19 17:33:01;;;;;;;5.32;2.08;;;;;;;;;;6236296;28;20045;-70
2022/04/19 17:36:04;;;;;;;5.85;3.08;;;;;;;;;;6233180;28;20497;-71
2022/04/19 17:39:07;;;;;;;3.22;1.88;;;;;;;;;;6238319;28;20045;-70
2022/04/19 17:42:08;;;;;;;7.97;2.20;;;;;;;;;;6227882;28;20070;-70
2022/04/19 17:45:11;;;;;;;4.05;1.92;;;;;;;;;;6240198;28;20559;-71
2022/04/19 17:48:12;;;;;;;4.40;2.20;;;;;;;;;;6232732;28;20058;-70
2022/04/19 17:57:52;;;;;;;6.55;2.40;;;;;;;;;;6218536;28;20855;-71
2022/04/19 18:00:54;;;;;;;5.43;2.25;;;;;;;;;;6227937;28;20126;-70
2022/04/19 18:03:56;;;;;;;5.07;2.30;;;;;;;;;;6228953;28;20061;-70
2022/04/19 18:06:58;;;;;;;4.50;2.55;;;;;;;;;;6231114;28;20049;-70
2022/04/19 18:10:01;;;;;;;4.03;2.40;;;;;;;;;;6231725;28;20050;-71
2022/04/19 18:13:03;;;;;;;8.20;2.50;;;;;;;;;;6232122;28;20053;-69
2022/04/19 18:16:05;;;;;;;3.83;2.30;;;;;;;;;;6236806;28;20068;-68
2022/04/19 18:19:07;;;;;;;3.58;1.98;;;;;;;;;;6236012;28;20093;-70
2022/04/19 18:25:30;;;;;;;4.90;2.60;;;;;;;;;;6241538;28;20077;-70
2022/04/19 18:28:31;;;;;;;3.95;2.47;;;;;;;;;;6239603;28;20509;-71
2022/04/19 18:31:33;;;;;;;6.35;2.40;;;;;;;;;;6238662;28;20109;-70
2022/04/19 18:34:35;;;;;;;7.07;2.65;;;;;;;;;;6240367;28;20041;-71
2022/04/19 18:37:37;;;;;;;10.95;2.58;;;;;;;;;;6242789;28;20054;-70
2022/04/19 18:40:40;;;;;;;12.07;2.70;;;;;;;;;;6242822;28;20524;-71
2022/04/19 18:43:43;;;;;;;4.93;2.47;;;;;;;;;;6245011;28;20508;-70
2022/04/19 18:46:44;;;;;;;7.60;2.75;;;;;;;;;;6243651;28;20049;-69
2022/04/19 18:49:46;;;;;;;6.65;2.78;;;;;;;;;;6243956;28;20138;-69
2022/04/19 18:52:48;;;;;;;4.55;2.45;;;;;;;;;;6240341;28;20175;-70
2022/04/19 18:55:52;;;;;;;4.22;2.65;;;;;;;;;;6238043;28;20131;-69
2022/04/19 18:58:55;;;;;;;4.13;2.60;;;;;;;;;;6233286;28;20069;-70
2022/04/19 19:01:56;;;;;;;4.50;2.45;;;;;;;;;;6238422;28;20045;-71
2022/04/19 19:04:58;;;;;;;7.43;2.92;;;;;;;;;;6234010;28;20049;-70
2022/04/19 19:08:00;;;;;;;5.57;3.03;;;;;;;;;;6237873;28;20960;-71
2022/04/19 19:11:04;;;;;;;6.68;2.90;;;;;;;;;;6235216;28;20072;-70
2022/04/19 19:14:05;;;;;;;6.28;2.90;;;;;;;;;;6232833;28;20092;-70
2022/04/19 19:17:07;;;;;;;4.38;2.60;;;;;;;;;;6235805;28;20146;-71
2022/04/19 19:20:10;;;;;;;4.75;2.65;;;;;;;;;;6234450;28;20432;-72
2022/04/19 19:23:12;;;;;;;3.78;2.75;;;;;;;;;;6236204;28;20054;-71
2022/04/19 19:26:20;;;;;;;6.22;2.45;;;;;;;;;;6237694;28;20053;-71
2022/04/19 19:29:22;;;;;;;4.20;2.67;;;;;;;;;;6239817;28;20119;-72
2022/04/19 19:32:23;;;;;;;5.88;2.70;;;;;;;;;;6235785;28;20096;-71
2022/04/19 19:35:25;;;;;;;7.78;3.10;;;;;;;;;;6238754;28;20053;-70
2022/04/19 19:38:28;;;;;;;5.78;2.30;;;;;;;;;;6240409;28;20061;-71
2022/04/19 19:41:31;;;;;;;6.55;2.55;;;;;;;;;;6236338;28;20918;-71
2022/04/19 19:44:32;;;;;;;4.93;2.60;;;;;;;;;;6239917;28;20057;-71
2022/04/19 19:47:34;;;;;;;9.50;3.42;;;;;;;;;;6235684;28;20467;-72
2022/04/19 19:50:36;;;;;;;5.35;2.92;;;;;;;;;;6236858;28;20060;-71
2022/04/19 19:53:38;;;;;;;8.05;3.03;;;;;;;;;;6234353;28;20648;-73
2022/04/19 19:56:41;;;;;;;5.93;2.67;;;;;;;;;;6236583;28;20107;-72
2022/04/19 19:59:43;;;;;;;5.55;3.22;;;;;;;;;;6239341;28;20480;-71
2022/04/19 20:02:45;;;;;;;6.90;2.83;;;;;;;;;;6235933;28;20132;-70
2022/04/19 20:05:46;;;;;;;4.80;2.72;;;;;;;;;;6236898;28;20511;-71
2022/04/19 20:08:48;;;;;;;4.45;2.80;;;;;;;;;;6237428;28;20236;-72
2022/04/19 20:11:51;;;;;;;6.97;2.80;;;;;;;;;;6232964;28;20077;-71
2022/04/19 20:14:55;;;;;;;3.70;2.67;;;;;;;;;;6230243;28;20104;-71
2022/04/19 20:17:57;;;;;;;4.57;2.95;;;;;;;;;;6235373;28;20848;-74
2022/04/19 20:20:59;;;;;;;6.10;2.92;;;;;;;;;;6235927;28;20121;-72
2022/04/19 20:24:01;;;;;;;5.70;3.25;;;;;;;;;;6235240;28;20085;-73
2022/04/19 20:27:05;;;;;;;4.50;2.85;;;;;;;;;;6234137;28;20045;-71
2022/04/19 20:30:07;;;;;;;;;;;;;;;;;;6237629;28;20057;-71
2022/04/19 20:33:09;;;;;;;6.47;2.95;;;;;;;;;;6236457;28;19972;-71
2022/04/19 20:36:10;;;;;;;5.78;3.03;;;;;;;;;;6234377;28;20056;-74
2022/04/19 20:39:12;;;;;;;5.43;2.95;;;;;;;;;;6235617;28;20582;-73
2022/04/19 20:42:15;;;;;;;5.78;2.67;;;;;;;;;;6237893;28;20054;-73
2022/04/19 20:45:17;;;;;;;6.07;2.90;;;;;;;;;;6232055;28;20049;-72
2022/04/19 20:51:38;;;;;;;5.88;3.05;;;;;;;;;;6231513;28;20053;-71
2022/04/19 20:54:40;;;;;;;6.18;3.05;;;;;;;;;;6235137;28;20135;-73
2022/04/19 20:57:43;;;;;;;7.20;3.08;;;;;;;;;;6231488;28;20052;-71
2022/04/19 21:00:48;;;;;;;8.38;3.40;;;;;;;;;;6229104;28;20128;-72
2022/04/19 21:03:57;;;;;;;7.28;3.58;;;;;;;;;;6234394;28;20099;-72
2022/04/19 21:07:03;;;;;;;4.43;3.10;;;;;;;;;;6233720;28;20390;-73
2022/04/19 21:10:10;;;;;;;6.78;3.83;;;;;;;;;;6233719;28;20111;-72
2022/04/19 21:13:16;;;;;;;5.65;2.80;;;;;;;;;;6230693;28;20091;-73
2022/04/19 21:16:19;;;;;;;4.82;3.33;;;;;;;;;;6232539;28;20078;-74
2022/04/19 21:19:32;;;;;;;5.85;3.30;;;;;;;;;;6238309;28;20053;-72
2022/04/19 21:22:37;;;;;;;4.57;3.45;;;;;;;;;;6236794;28;20056;-71
2022/04/19 21:25:41;;;;;;;5.28;3.45;;;;;;;;;;6229989;28;20046;-70
2022/04/19 21:28:46;;;;;;;5.97;3.03;;;;;;;;;;6232927;28;20549;-72
2022/04/19 21:31:48;;;;;;;3.55;2.95;;;;;;;;;;6231464;28;20058;-71
2022/04/19 21:34:51;;;;;;;6.95;3.30;;;;;;;;;;6232539;28;20050;-71
2022/04/19 21:37:54;;;;;;;6.03;3.60;;;;;;;;;;6229888;28;20050;-71
2022/04/19 21:40:57;;;;;;;4.60;3.08;;;;;;;;;;6232616;28;20144;-71
2022/04/19 21:44:02;;;;;;;4.50;3.08;;;;;;;;;;6234353;28;20054;-71
2022/04/19 21:47:07;;;;;;;5.22;3.28;;;;;;;;;;6234243;28;20050;-72